Latest Weather Observations for East Sale

IDV60801

Issued at 9:31 am EST Thursday 3 September 2015 (issued every 30 minutes, with the page automatically refreshed every 10 minutes)

About weather observations | Map of weather stations | Latest weather observations for VIC | Other Formats
Station Details ID: 085072 Name: EAST SALE AIRPORT Lat: -38.12 Lon: 147.13 Height: 4.6 m
Data from the previous 72 hours. | See also: Recent months at East Sale
Date/Time
EST
Temp
°C
App
Temp
°C
Dew
Point
Rel
Hum
%
Delta-T
°C
Wind Press
QNH
hPa
Press
MSL
hPa
Rain
since 9 am
mm
Dir
 
Spd
km/h
Gust
km/h
Spd
kts
Gust
kts
03/09:00am 11.6 8.7 9.7 88 1.0 W 15 22 8 12 1010.9 1010.9 0.0
03/08:30am 10.9 7.5 9.2 89 0.8 W 17 19 9 10 1010.5 1010.5 0.0
03/08:00am 10.6 8.0 9.2 91 0.7 W 13 17 7 9 1009.9 1009.9 0.0
03/07:30am 10.7 8.1 9.5 92 0.6 W 13 15 7 8 1009.6 1009.6 0.0
03/07:00am 11.4 9.0 10.1 92 0.7 WSW 13 20 7 11 1009.1 1009.1 0.0
03/06:30am 11.5 8.5 10.6 94 0.5 SW 17 22 9 12 1008.6 1008.6 0.0
03/06:00am 11.3 8.6 10.4 94 0.5 SW 15 22 8 12 1008.3 1008.3 0.0
03/05:30am 10.9 8.1 10.1 95 0.4 SW 15 20 8 11 1007.8 1007.8 0.0
03/05:00am 10.7 7.5 9.9 95 0.4 SW 17 22 9 12 1007.5 1007.5 0.0
03/04:30am 10.6 8.6 10.0 96 0.3 WSW 11 15 6 8 1007.2 1007.2 0.0
03/04:00am 9.8 7.6 9.2 96 0.3 WSW 11 15 6 8 1007.2 1007.2 0.0
03/03:30am 8.5 6.2 7.4 93 0.5 W 9 11 5 6 1007.1 1007.1 0.0
03/03:00am 8.7 6.5 7.8 94 0.4 WNW 9 13 5 7 1007.1 1007.1 0.0
03/02:30am 7.9 5.1 7.0 94 0.4 WNW 11 13 6 7 1006.9 1006.9 0.0
03/02:07am 8.0 4.9 7.1 94 0.4 WNW 13 15 7 8 1007.0 1007.0 0.0
03/02:00am 8.2 5.5 7.3 94 0.4 WNW 11 13 6 7 1007.1 1007.1 0.0
03/01:30am 8.5 5.9 7.6 94 0.4 WNW 11 13 6 7 1007.4 1007.4 0.0
03/01:00am 8.4 5.4 7.6 95 0.4 NNW 13 17 7 9 1007.8 1007.8 0.0
03/12:30am 8.2 6.2 7.3 94 0.4 W 7 11 4 6 1007.8 1007.8 0.0
03/12:00am 8.7 7.0 7.5 92 0.6 WNW 6 7 3 4 1007.9 1007.9 0.0
 
Date/Time
EST
Temp
°C
App
Temp
°C
Dew
Point
Rel
Hum
%
Delta-T
°C
Wind Press
QNH
hPa
Press
MSL
hPa
Rain
since 9 am
mm
Dir
 
Spd
km/h
Gust
km/h
Spd
kts
Gust
kts
02/11:30pm 9.6 7.9 8.4 92 0.6 WNW 7 9 4 5 1008.1 1008.1 0.0
02/11:00pm 10.3 7.6 8.9 91 0.7 SSW 13 15 7 8 1008.2 1008.2 0.0
02/10:30pm 10.2 7.8 8.8 91 0.7 SW 11 13 6 7 1008.8 1008.8 0.0
02/10:00pm 9.9 7.5 8.7 92 0.6 SSW 11 13 6 7 1008.7 1008.7 0.0
02/09:30pm 9.6 7.1 8.4 92 0.6 SW 11 13 6 7 1008.8 1008.8 0.0
02/09:00pm 9.5 7.5 8.7 95 0.4 SSW 9 11 5 6 1008.9 1008.9 0.0
02/08:30pm 8.6 6.6 7.2 91 0.7 SSW 7 9 4 5 1009.0 1009.0 0.0
02/08:00pm 9.1 7.3 7.9 92 0.6 SSW 7 9 4 5 1009.0 1009.0 0.0
02/07:30pm 9.4 7.3 8.2 92 0.6 S 9 9 5 5 1009.0 1009.0 0.0
02/07:00pm 9.7 8.1 8.1 90 0.8 SSE 6 7 3 4 1009.1 1009.1 0.0
02/06:30pm 10.1 8.0 8.2 88 0.9 SE 9 11 5 6 1008.9 1008.9 0.0
02/06:00pm 9.9 6.4 7.3 84 1.2 E 15 17 8 9 1008.7 1008.7 0.0
02/05:30pm 11.4 7.7 7.9 79 1.7 ESE 17 20 9 11 1008.6 1008.6 0.0
02/05:00pm 12.4 8.1 7.1 70 2.6 E 19 22 10 12 1008.9 1008.9 0.0
02/04:30pm 13.8 9.3 5.9 59 3.7 E 19 26 10 14 1008.8 1008.8 0.0
02/04:00pm 14.6 9.4 5.7 55 4.2 E 22 26 12 14 1008.7 1008.7 0.0
02/03:30pm 15.3 10.7 8.3 63 3.5 E 22 28 12 15 1009.0 1009.0 0.0
02/03:00pm 14.9 10.2 7.7 62 3.6 E 22 26 12 14 1009.2 1009.2 0.0
02/02:30pm 15.6 11.1 6.9 56 4.3 E 20 24 11 13 1009.4 1009.4 0.0
02/02:00pm 15.8 11.9 8.5 62 3.7 E 19 24 10 13 1009.8 1009.8 0.0
02/01:30pm 15.6 11.8 7.6 59 4.0 E 17 20 9 11 1010.3 1010.3 0.0
02/01:00pm 15.3 10.5 4.7 49 5.0 E 19 24 10 13 1010.9 1010.9 0.0
02/12:30pm 14.4 10.6 5.7 56 4.1 ESE 15 17 8 9 1011.5 1011.5 0.0
02/12:00pm 13.9 11.0 6.7 62 3.5 ESE 11 15 6 8 1012.2 1012.2 0.0
02/11:30am 12.6 10.5 8.1 74 2.2 SE 9 13 5 7 1012.5 1012.5 0.0
02/11:29am 12.7 11.0 8.4 75 2.1 SE 7 13 4 7 1012.5 1012.5 0.0
02/11:00am 12.1 10.5 8.2 77 1.9 E 6 9 3 5 1013.0 1013.0 0.0
02/10:30am 12.2 10.7 8.5 78 1.8 E 6 7 3 4 1013.3 1013.3 0.0
02/10:00am 10.5 8.6 6.6 77 1.8 NNW 6 9 3 5 1013.7 1013.7 0.0
02/09:30am 7.6 6.4 6.4 92 0.5 NW 2 7 1 4 1014.3 1014.3 0.0
02/09:00am 6.6 4.5 5.9 95 0.3 WNW 6 7 3 4 1014.5 1014.5 0.0
02/08:30am 5.5 2.8 5.4 99 0.0 NW 9 13 5 7 1014.6 1014.6 0.0
02/08:00am 3.6 0.9 3.5 99 0.0 NW 7 9 4 5 1014.8 1014.8 0.0
02/07:30am 2.1 -0.9 2.0 99 0.0 NW 7 9 4 5 1014.7 1014.7 0.0
02/07:00am 1.6 -1.5 1.5 99 0.0 NNW 7 9 4 5 1014.8 1014.8 0.0
02/06:30am 1.1 -2.1 1.0 99 0.0 NW 7 9 4 5 1014.8 1014.8 0.0
02/06:00am 1.1 -1.9 1.0 99 0.0 NNW 6 7 3 4 1014.7 1014.7 0.0
02/05:44am 1.5 -1.6 1.4 99 0.0 WNW 7 7 4 4 1014.6 1014.6 0.0
02/05:30am 1.8 -1.1 1.7 99 0.0 WNW 6 7 3 4 1014.8 1014.8 0.0
02/05:22am 1.9 -0.9 1.8 99 0.0 NW 6 7 3 4 1014.8 1014.8 0.0
02/05:09am 1.2 -2.3 1.1 99 0.0 NW 9 9 5 5 1014.5 1014.5 0.0
02/05:00am 0.7 -2.9 0.6 99 0.0 NW 9 9 5 5 1014.5 1014.5 0.0
02/04:30am 0.7 -1.6 0.6 99 0.0 W 2 7 1 4 1014.5 1014.5 0.0
02/04:25am 0.9 -1.0 0.8 99 0.0 CALM 0 0 0 0 1014.5 1014.5 0.0
02/04:00am 1.2 -0.6 1.1 99 0.0 CALM 0 0 0 0 1014.5 1014.5 0.0
02/03:30am 0.9 -1.0 0.8 99 0.0 CALM 0 0 0 0 1014.5 1014.5 0.0
02/03:19am 1.1 -0.7 1.0 99 0.0 CALM 0 0 0 0 1014.6 1014.6 0.0
02/03:00am 1.1 -0.8 0.8 98 0.1 CALM 0 0 0 0 1014.8 1014.8 0.0
02/02:30am 1.5 -0.3 1.4 99 0.0 CALM 0 0 0 0 1015.0 1015.0 0.0
02/02:20am 1.5 -0.3 1.2 98 0.1 CALM 0 0 0 0 1015.1 1015.1 0.0
02/02:18am 1.5 -0.3 1.2 98 0.1 CALM 0 0 0 0 1015.1 1015.1 0.0
02/02:00am 1.9 0.2 1.8 99 0.0 CALM 0 0 0 0 1015.3 1015.3 0.0
02/01:47am 2.1 0.4 2.0 99 0.0 CALM 0 0 0 0 1015.5 1015.5 0.0
02/01:30am 2.7 1.1 2.6 99 0.0 CALM 0 0 0 0 1015.4 1015.4 0.0
02/01:01am 2.2 0.5 1.9 98 0.1 CALM 0 0 0 0 1015.7 1015.7 0.0
02/01:00am 2.1 0.4 1.8 98 0.1 CALM 0 0 0 0 1015.7 1015.7 0.0
02/12:44am 2.1 0.4 1.8 98 0.1 CALM 0 0 0 0 1015.8 1015.8 0.0
02/12:30am 3.1 1.2 2.8 98 0.1 WNW 2 6 1 3 1015.7 1015.7 0.0
02/12:00am 2.8 0.1 2.5 98 0.1 WNW 6 7 3 4 1016.1 1016.1 0.0
 
Date/Time
EST
Temp
°C
App
Temp
°C
Dew
Point
Rel
Hum
%
Delta-T
°C
Wind Press
QNH
hPa
Press
MSL
hPa
Rain
since 9 am
mm
Dir
 
Spd
km/h
Gust
km/h
Spd
kts
Gust
kts
01/11:30pm 2.9 1.3 2.5 97 0.2 CALM 0 0 0 0 1016.2 1016.2 0.0
01/11:00pm 3.5 2.0 3.2 98 0.1 CALM 0 0 0 0 1016.4 1016.4 0.0
01/10:30pm 3.8 2.4 3.4 97 0.2 CALM 0 0 0 0 1016.4 1016.4 0.0
01/10:00pm 3.7 2.2 3.1 96 0.2 CALM 0 0 0 0 1016.3 1016.3 0.0
01/09:30pm 4.1 1.9 3.4 95 0.3 WNW 4 7 2 4 1016.4 1016.4 0.0
01/09:00pm 5.0 3.7 4.1 94 0.4 CALM 0 0 0 0 1016.2 1016.2 0.0
01/08:30pm 5.2 2.7 3.7 90 0.6 N 6 7 3 4 1016.1 1016.1 0.0
01/08:00pm 6.1 3.6 4.7 91 0.6 ENE 7 9 4 5 1015.7 1015.7 0.0
01/07:30pm 6.7 3.9 5.0 89 0.7 ESE 9 11 5 6 1015.8 1015.8 0.0
01/07:00pm 7.0 4.1 4.7 85 1.0 ESE 9 11 5 6 1015.5 1015.5 0.0
01/06:30pm 7.4 3.7 4.7 83 1.2 ESE 13 15 7 8 1015.3 1015.3 0.0
01/06:00pm 8.4 4.8 4.8 78 1.6 ESE 13 15 7 8 1015.0 1015.0 0.0
01/05:30pm 9.2 5.6 5.0 75 1.9 SE 13 17 7 9 1015.1 1015.1 0.0
01/05:00pm 10.3 6.0 5.3 71 2.3 SE 17 20 9 11 1014.5 1014.5 0.0
01/04:30pm 11.2 6.5 5.1 66 2.8 SE 19 24 10 13 1014.5 1014.5 0.0
01/04:00pm 12.2 7.5 6.0 66 2.9 SE 20 26 11 14 1014.6 1014.6 0.0
01/03:30pm 13.1 10.0 7.1 67 2.9 SSE 13 26 7 14 1014.8 1014.8 0.0
01/03:00pm 13.9 11.1 5.0 55 4.1 SSW 9 13 5 7 1015.0 1015.0 0.0
01/02:30pm 13.3 10.4 4.7 56 4.0 S 9 15 5 8 1015.0 1015.0 0.0
01/02:00pm 13.7 10.9 5.3 57 3.9 SW 9 15 5 8 1015.2 1015.2 0.0
01/01:30pm 13.2 10.9 4.6 56 3.9 W 6 13 3 7 1015.4 1015.4 0.0
01/01:00pm 13.2 10.3 4.4 55 4.0 SW 9 15 5 8 1015.9 1015.9 0.0
01/12:30pm 12.2 9.6 4.4 59 3.5 SSW 7 11 4 6 1016.2 1016.2 0.0
01/12:00pm 12.2 8.9 4.4 59 3.5 NW 11 20 6 11 1016.7 1016.7 0.0
01/11:30am 12.2 8.8 3.9 57 3.7 WSW 11 17 6 9 1017.1 1017.1 0.0
01/11:00am 11.9 9.2 3.7 57 3.6 W 7 11 4 6 1017.3 1017.3 0.0
01/10:30am 10.8 7.7 3.8 62 3.1 WNW 9 15 5 8 1017.3 1017.3 0.0
01/10:00am 10.6 7.6 6.2 74 2.0 W 11 15 6 8 1017.4 1017.4 0.0
01/09:30am 9.1 5.9 5.1 76 1.8 WNW 11 15 6 8 1017.6 1017.6 0.0
01/09:00am 8.5 5.9 6.3 86 1.0 WNW 9 13 5 7 1017.6 1017.6 0.0
01/08:30am 7.1 4.4 5.7 91 0.6 WNW 9 11 5 6 1017.8 1017.8 0.0
01/08:00am 6.0 2.8 5.0 93 0.4 WNW 11 13 6 7 1017.9 1017.9 0.0
01/07:30am 5.5 2.2 4.5 93 0.4 WNW 11 13 6 7 1017.8 1017.8 0.0
01/07:00am 5.0 1.7 4.4 96 0.3 WNW 11 15 6 8 1017.6 1017.6 0.0
01/06:30am 4.5 1.1 4.2 98 0.1 NW 11 11 6 6 1017.4 1017.4 0.0
01/06:00am 3.7 -0.2 3.3 97 0.2 NW 13 13 7 7 1017.3 1017.3 0.0
01/05:30am 4.1 0.3 3.7 97 0.2 WNW 13 13 7 7 1017.3 1017.3 0.0
01/05:00am 4.5 1.1 3.8 95 0.3 WNW 11 15 6 8 1017.4 1017.4 0.0
01/04:30am 5.3 2.0 4.6 95 0.3 WNW 11 15 6 8 1017.2 1017.2 0.0
01/04:00am 6.5 3.4 5.5 93 0.4 W 11 13 6 7 1017.2 1017.2 0.0
01/03:30am 7.2 4.6 6.1 93 0.5 WNW 9 9 5 5 1017.3 1017.3 0.0
01/03:00am 7.6 5.0 6.1 90 0.7 NW 9 11 5 6 1017.5 1017.5 0.0
01/02:30am 7.3 4.7 5.9 91 0.6 WNW 9 13 5 7 1017.8 1017.8 0.0
01/02:00am 7.4 5.2 6.0 91 0.6 W 7 11 4 6 1018.0 1018.0 0.0
01/01:30am 7.2 5.8 5.5 89 0.8 WSW 2 7 1 4 1018.3 1018.3 0.0
01/01:00am 7.0 4.7 5.5 90 0.7 NW 7 9 4 5 1018.3 1018.3 0.0
01/12:30am 7.1 4.9 5.1 87 0.9 WSW 6 7 3 4 1018.4 1018.4 0.0
01/12:00am 7.8 5.6 5.4 85 1.1 SSW 6 7 3 4 1018.5 1018.5 0.0
 
Date/Time
EST
Temp
°C
App
Temp
°C
Dew
Point
Rel
Hum
%
Delta-T
°C
Wind Press
QNH
hPa
Press
MSL
hPa
Rain
since 9 am
mm
Dir
 
Spd
km/h
Gust
km/h
Spd
kts
Gust
kts
31/11:30pm 8.2 6.1 6.5 89 0.8 WSW 7 9 4 5 1018.7 1018.7 0.0
31/11:00pm 8.7 6.9 7.0 89 0.8 WNW 6 9 3 5 1018.8 1018.8 0.0
31/10:30pm 8.6 6.5 6.6 87 0.9 W 7 9 4 5 1018.9 1018.9 0.0
31/10:00pm 8.7 6.8 6.7 87 0.9 SW 6 6 3 3 1019.2 1019.2 0.0
31/09:30pm 9.0 8.3 6.8 86 1.0 CALM 0 0 0 0 1019.2 1019.2 0.0
31/09:00pm 9.4 8.7 6.8 84 1.2 CALM 0 0 0 0 1019.1 1019.1 0.0
31/08:30pm 9.3 7.8 6.9 85 1.1 S 4 7 2 4 1019.0 1019.0 0.0
31/08:00pm 9.2 7.2 7.0 86 1.0 SSW 7 7 4 4 1018.9 1018.9 0.0
31/07:30pm 9.5 7.5 7.1 85 1.1 SSW 7 9 4 5 1018.8 1018.8 0.0
31/07:00pm 9.8 8.4 7.2 84 1.2 SSW 4 9 2 5 1018.7 1018.7 0.0
31/06:30pm 10.0 7.3 7.4 84 1.2 SSE 11 17 6 9 1018.6 1018.6 0.0
31/06:00pm 10.1 7.0 7.3 83 1.3 SSE 13 17 7 9 1018.6 1018.6 0.0
31/05:30pm 10.5 7.3 7.0 79 1.7 SSE 13 19 7 10 1018.5 1018.5 0.0
31/05:00pm 11.1 8.1 7.6 79 1.7 SE 13 17 7 9 1018.5 1018.5 0.0
31/04:30pm 11.5 8.5 7.8 78 1.8 SE 13 19 7 10 1018.3 1018.3 0.0
31/04:00pm 12.8 10.7 6.8 67 2.9 SE 7 9 4 5 1018.2 1018.2 0.0
31/03:30pm 12.6 10.0 6.2 65 3.0 S 9 15 5 8 1018.2 1018.2 0.0
31/03:00pm 13.1 10.9 6.2 63 3.3 SSW 7 9 4 5 1018.3 1018.3 0.0
31/02:30pm 12.2 9.1 5.6 64 3.1 SSW 11 15 6 8 1018.6 1018.6 0.0
31/02:00pm 12.6 10.1 6.4 66 2.9 WSW 9 15 5 8 1018.7 1018.7 0.0
31/01:30pm 12.7 9.4 4.4 57 3.8 WNW 11 19 6 10 1018.9 1018.9 0.0
31/01:00pm 12.7 9.2 5.6 62 3.3 NW 13 22 7 12 1019.3 1019.3 0.0
31/12:30pm 12.4 9.2 5.3 62 3.3 W 11 17 6 9 1019.7 1019.7 0.0
31/12:00pm 12.0 8.6 5.9 66 2.8 W 13 20 7 11 1020.1 1020.1 0.0
31/11:30am 11.1 7.2 5.2 67 2.7 WNW 15 24 8 13 1020.6 1020.6 0.0
31/11:00am 10.9 6.4 4.4 64 2.9 W 17 24 9 13 1020.7 1020.7 0.0
31/10:30am 10.4 5.5 4.3 66 2.7 WNW 19 24 10 13 1021.0 1021.0 0.0
31/10:00am 10.1 5.7 4.9 70 2.3 WNW 17 22 9 12 1021.2 1021.2 0.0

Other Formats:

Comma delimited format used in spreadsheet applications
http://www.bom.gov.au/fwo/IDV60801/IDV60801.94907.axf

JavaScript Object Notation format (JSON) in row-major order
http://www.bom.gov.au/fwo/IDV60801/IDV60801.94907.json